createdAt,value
2019-02-21T00:02:45.783Z,6.98
2019-02-21T00:05:35.555Z,7.00
2019-02-21T00:08:25.370Z,6.92
2019-02-21T00:11:15.152Z,6.84
2019-02-21T00:14:04.944Z,6.80
2019-02-21T00:16:54.771Z,6.76
2019-02-21T00:19:44.549Z,6.71
2019-02-21T00:22:34.330Z,6.70
2019-02-21T00:25:24.158Z,6.75
2019-02-21T00:28:13.964Z,6.77
2019-02-21T00:31:04.273Z,6.74
2019-02-21T00:33:54.482Z,6.64
2019-02-21T00:36:44.444Z,6.65
2019-02-21T00:39:34.206Z,6.46
2019-02-21T00:42:24.030Z,6.36
2019-02-21T00:45:13.815Z,6.48
2019-02-21T00:48:03.610Z,6.44
2019-02-21T00:50:53.395Z,6.36
2019-02-21T00:53:43.189Z,6.19
2019-02-21T00:56:32.937Z,6.00
2019-02-21T00:59:22.842Z,5.97
2019-02-21T01:02:12.629Z,6.11
2019-02-21T01:05:02.458Z,6.19
2019-02-21T01:08:11.093Z,6.21
2019-02-21T01:11:00.870Z,6.13
2019-02-21T01:13:50.703Z,6.05
2019-02-21T01:16:40.507Z,5.95
2019-02-21T01:19:30.343Z,5.95
2019-02-21T01:22:20.138Z,5.99
2019-02-21T01:25:09.925Z,6.00
2019-02-21T01:27:59.701Z,6.04
2019-02-21T01:30:56.716Z,5.96
2019-02-21T01:33:34.411Z,6.02
2019-02-21T01:36:24.225Z,5.88
2019-02-21T01:39:14.067Z,5.89
2019-02-21T01:42:03.851Z,6.01
2019-02-21T01:44:53.676Z,5.98
2019-02-21T01:47:43.447Z,6.00
2019-02-21T01:50:33.277Z,6.03
2019-02-21T01:53:23.038Z,6.05
2019-02-21T01:56:12.900Z,6.03
2019-02-21T01:59:02.619Z,5.97
2019-02-21T02:01:52.415Z,5.99
2019-02-21T02:04:42.189Z,5.87
2019-02-21T02:07:32.000Z,5.91
2019-02-21T02:10:21.806Z,5.90
2019-02-21T02:13:23.703Z,5.91
2019-02-21T02:15:54.677Z,5.96
2019-02-21T02:18:44.448Z,5.92
2019-02-21T02:21:34.203Z,6.02
2019-02-21T02:24:23.993Z,6.02
2019-02-21T02:27:13.743Z,6.08
2019-02-21T02:30:03.542Z,6.12
2019-02-21T02:32:53.279Z,6.04
2019-02-21T02:35:43.075Z,6.08
2019-02-21T02:38:32.881Z,6.17
2019-02-21T02:41:22.683Z,6.16
2019-02-21T02:44:12.479Z,6.03
2019-02-21T02:47:02.256Z,6.01
2019-02-21T02:49:52.042Z,5.99
2019-02-21T02:52:41.913Z,5.99
2019-02-21T02:55:31.708Z,5.88
2019-02-21T02:58:21.507Z,6.05
2019-02-21T03:01:11.374Z,5.98
2019-02-21T03:04:01.319Z,6.14
2019-02-21T03:06:45.689Z,6.13
2019-02-21T03:09:35.457Z,6.15
2019-02-21T03:12:25.220Z,6.19
2019-02-21T03:15:15.013Z,6.08
2019-02-21T03:18:04.780Z,6.07
2019-02-21T03:20:54.572Z,6.00
2019-02-21T03:23:44.358Z,5.93
2019-02-21T03:26:34.507Z,6.08
2019-02-21T03:29:24.310Z,6.03
2019-02-21T03:32:14.115Z,5.86
2019-02-21T03:35:03.893Z,5.74
2019-02-21T03:37:53.728Z,5.66
2019-02-21T03:40:43.609Z,5.59
2019-02-21T03:43:33.465Z,5.51
2019-02-21T03:46:23.332Z,5.46
2019-02-21T03:49:15.220Z,5.41
2019-02-21T03:52:04.994Z,5.41
2019-02-21T03:54:54.782Z,5.37
2019-02-21T03:57:44.558Z,5.37
2019-02-21T04:00:34.351Z,5.27
2019-02-21T04:03:24.132Z,5.25
2019-02-21T04:06:13.925Z,5.20
2019-02-21T04:09:04.532Z,5.10
2019-02-21T04:11:54.343Z,5.00
2019-02-21T04:14:44.115Z,4.94
2019-02-21T04:17:33.896Z,4.90
2019-02-21T04:20:23.690Z,5.05
2019-02-21T04:23:13.479Z,5.33
2019-02-21T04:26:03.282Z,5.33
2019-02-21T04:28:53.062Z,5.40
2019-02-21T04:31:42.833Z,5.38
2019-02-21T04:34:32.613Z,5.33
2019-02-21T04:37:22.379Z,5.19
2019-02-21T04:40:13.105Z,5.11
2019-02-21T04:43:02.880Z,5.16
2019-02-21T04:45:52.659Z,5.16
2019-02-21T04:48:42.446Z,5.07
2019-02-21T04:51:32.246Z,4.96
2019-02-21T04:54:22.046Z,4.87
2019-02-21T04:57:11.889Z,4.82
2019-02-21T05:00:01.696Z,4.83
2019-02-21T05:02:51.525Z,4.79
2019-02-21T05:05:41.678Z,4.78
2019-02-21T05:08:31.513Z,4.72
2019-02-21T05:11:21.340Z,4.67
2019-02-21T05:14:11.199Z,4.67
2019-02-21T05:17:01.022Z,4.65
2019-02-21T05:19:50.758Z,4.67
2019-02-21T05:22:40.588Z,4.69
2019-02-21T05:25:30.433Z,4.64
2019-02-21T05:28:41.181Z,4.57
2019-02-21T05:31:41.318Z,4.54
2019-02-21T05:34:50.005Z,4.53
2019-02-21T05:37:58.653Z,4.54
2019-02-21T05:41:07.349Z,4.55
2019-02-21T05:44:16.064Z,4.58
2019-02-21T05:47:21.769Z,4.65
2019-02-21T05:50:30.449Z,4.63
2019-02-21T05:53:39.091Z,4.69
2019-02-21T05:56:47.748Z,4.65
2019-02-21T05:59:52.617Z,4.65
2019-02-21T06:03:01.279Z,4.66
2019-02-21T06:06:06.592Z,4.65
2019-02-21T06:09:15.268Z,4.65
2019-02-21T06:12:33.110Z,4.60
2019-02-21T06:15:21.455Z,4.56
2019-02-21T06:18:30.083Z,4.57
2019-02-21T06:21:38.760Z,4.62
2019-02-21T06:24:47.417Z,4.66
2019-02-21T06:27:45.079Z,4.67
2019-02-21T06:30:47.892Z,4.70
2019-02-21T06:33:37.683Z,4.74
2019-02-21T06:36:27.506Z,4.80
2019-02-21T06:39:17.283Z,4.90
2019-02-21T06:42:07.073Z,4.97
2019-02-21T06:44:56.871Z,5.03
2019-02-21T06:47:46.655Z,5.12
2019-02-21T06:50:36.539Z,5.17
2019-02-21T06:53:26.404Z,5.25
2019-02-21T06:56:16.246Z,5.50
2019-02-21T06:59:06.021Z,5.87
2019-02-21T07:01:55.817Z,6.10
2019-02-21T07:04:45.651Z,6.20
2019-02-21T07:07:35.442Z,6.26
2019-02-21T07:10:25.246Z,6.32
2019-02-21T07:13:25.990Z,6.44
2019-02-21T07:15:52.657Z,6.95
2019-02-21T07:18:42.458Z,7.02
2019-02-21T07:21:32.239Z,7.31
2019-02-21T07:27:06.180Z,7.70
2019-02-21T07:29:56.003Z,7.82
2019-02-21T07:32:45.815Z,7.85
2019-02-21T07:35:35.609Z,7.93
2019-02-21T07:38:25.424Z,7.95
2019-02-21T07:41:15.682Z,8.06
2019-02-21T07:43:52.841Z,8.05
2019-02-21T07:46:42.711Z,8.16
2019-02-21T07:49:32.512Z,8.22
2019-02-21T07:52:22.327Z,8.29
2019-02-21T07:55:12.194Z,8.46
2019-02-21T07:58:03.944Z,8.50
2019-02-21T08:00:45.194Z,8.59
2019-02-21T08:03:43.825Z,8.71
2019-02-21T08:06:19.970Z,8.66
2019-02-21T08:09:01.351Z,8.75
2019-02-21T08:11:51.158Z,8.86
2019-02-21T08:14:43.301Z,8.87
2019-02-21T08:17:24.049Z,8.96
2019-02-21T08:20:13.867Z,9.08
2019-02-21T08:23:03.683Z,9.32
2019-02-21T08:25:53.450Z,9.49
2019-02-21T08:28:43.252Z,9.71
2019-02-21T08:31:33.012Z,9.94
2019-02-21T08:34:35.736Z,9.84
2019-02-21T08:37:25.522Z,9.98
2019-02-21T08:40:15.341Z,10.04
2019-02-21T08:43:05.158Z,10.21
2019-02-21T08:45:57.441Z,10.36
2019-02-21T08:48:32.480Z,10.63
2019-02-21T08:51:22.294Z,10.91
2019-02-21T08:54:12.131Z,10.77
2019-02-21T08:57:01.901Z,11.05
2019-02-21T08:59:51.656Z,11.23
2019-02-21T09:02:41.487Z,11.05
2019-02-21T09:05:31.259Z,10.88
2019-02-21T09:08:21.039Z,10.81
2019-02-21T09:11:10.834Z,10.96
2019-02-21T09:14:00.634Z,10.97
2019-02-21T09:16:50.415Z,10.98
2019-02-21T09:19:40.251Z,11.07
2019-02-21T09:22:30.054Z,11.24
2019-02-21T09:25:19.860Z,11.24
2019-02-21T09:28:09.705Z,11.30
2019-02-21T09:30:59.557Z,11.26
2019-02-21T09:33:49.355Z,11.27
2019-02-21T09:36:39.136Z,11.31
2019-02-21T09:39:28.952Z,11.53
2019-02-21T09:42:18.828Z,11.66
2019-02-21T09:45:11.729Z,11.48
2019-02-21T09:48:01.540Z,11.61
2019-02-21T09:50:51.392Z,11.65
2019-02-21T09:53:41.184Z,11.77
2019-02-21T09:56:31.063Z,11.85
2019-02-21T09:59:39.886Z,12.12
2019-02-21T10:02:29.730Z,12.48
2019-02-21T10:05:19.536Z,12.62
2019-02-21T10:08:09.342Z,12.43
2019-02-21T10:11:00.861Z,12.21
2019-02-21T10:13:45.407Z,12.24
2019-02-21T10:16:35.217Z,12.27
2019-02-21T10:19:25.002Z,12.37
2019-02-21T10:22:14.817Z,12.22
2019-02-21T10:25:05.270Z,12.19
2019-02-21T10:27:55.094Z,12.36
2019-02-21T10:30:44.901Z,12.23
2019-02-21T10:33:34.685Z,12.26
2019-02-21T10:36:24.562Z,12.27
2019-02-21T10:39:14.387Z,12.24
2019-02-21T10:42:04.340Z,12.30
2019-02-21T10:44:54.135Z,12.37
2019-02-21T10:47:43.944Z,12.50
2019-02-21T10:50:33.734Z,12.34
2019-02-21T10:53:23.533Z,12.58
2019-02-21T10:56:13.379Z,12.60
2019-02-21T10:59:03.191Z,12.64
2019-02-21T11:01:53.082Z,12.94
2019-02-21T11:04:54.073Z,12.81
2019-02-21T11:07:25.330Z,12.80
2019-02-21T11:13:36.780Z,12.68
2019-02-21T11:16:26.556Z,12.77
2019-02-21T11:19:16.369Z,12.68
2019-02-21T11:22:06.109Z,12.78
2019-02-21T11:24:55.899Z,12.83
2019-02-21T11:27:45.646Z,13.19
2019-02-21T11:30:35.439Z,13.55
2019-02-21T11:33:25.183Z,13.84
2019-02-21T11:36:14.986Z,13.76
2019-02-21T11:42:28.934Z,13.83
2019-02-21T11:48:45.491Z,13.47
2019-02-21T11:51:35.250Z,13.42
2019-02-21T11:54:27.250Z,13.37
2019-02-21T11:57:16.610Z,13.60
2019-02-21T12:03:29.202Z,13.63
2019-02-21T12:06:18.993Z,13.82
2019-02-21T12:12:30.789Z,13.57
2019-02-21T12:15:20.547Z,13.67
2019-02-21T12:18:10.441Z,13.69
2019-02-21T12:21:00.199Z,13.54
2019-02-21T12:23:49.991Z,13.49
2019-02-21T12:26:39.773Z,13.49
2019-02-21T12:29:29.564Z,13.55
2019-02-21T12:32:19.396Z,13.60
2019-02-21T12:35:09.338Z,13.63
2019-02-21T12:37:59.136Z,13.61
2019-02-21T12:40:48.923Z,13.56
2019-02-21T12:43:38.673Z,13.45
2019-02-21T12:46:28.450Z,13.55
2019-02-21T12:49:18.191Z,13.80
2019-02-21T12:52:08.003Z,13.78
2019-02-21T12:54:57.751Z,14.07
2019-02-21T12:57:47.561Z,14.29
2019-02-21T13:00:37.341Z,14.77
2019-02-21T13:03:27.109Z,14.73
2019-02-21T13:06:16.908Z,14.92
2019-02-21T13:11:49.523Z,14.87
2019-02-21T13:14:39.288Z,14.69
2019-02-21T13:17:29.084Z,14.94
2019-02-21T13:20:18.869Z,15.22
2019-02-21T13:23:08.725Z,15.67
2019-02-21T13:25:58.630Z,15.84
2019-02-21T13:28:48.437Z,15.79
2019-02-21T13:31:38.214Z,15.62
2019-02-21T13:34:28.011Z,15.53
2019-02-21T13:37:28.280Z,15.06
2019-02-21T13:40:01.173Z,15.19
2019-02-21T13:42:50.933Z,15.17
2019-02-21T13:45:40.758Z,15.24
2019-02-21T13:48:30.599Z,15.15
2019-02-21T13:51:20.411Z,15.12
2019-02-21T13:54:10.232Z,14.97
2019-02-21T13:57:00.062Z,14.86
2019-02-21T13:59:49.862Z,14.67
2019-02-21T14:02:39.702Z,14.54
2019-02-21T14:05:29.488Z,14.67
2019-02-21T14:08:19.309Z,14.85
2019-02-21T14:11:09.197Z,14.47
2019-02-21T14:13:58.994Z,14.10
2019-02-21T14:16:48.787Z,13.84
2019-02-21T14:19:38.667Z,13.74
2019-02-21T14:22:28.540Z,13.71
2019-02-21T14:25:18.330Z,13.72
2019-02-21T14:28:08.148Z,13.54
2019-02-21T14:30:57.981Z,13.41
2019-02-21T14:33:47.772Z,13.47
2019-02-21T14:36:37.584Z,13.53
2019-02-21T14:39:27.393Z,13.41
2019-02-21T14:42:17.177Z,13.61
2019-02-21T14:45:08.050Z,13.40
2019-02-21T14:47:57.846Z,13.36
2019-02-21T14:50:47.622Z,13.28
2019-02-21T14:53:37.427Z,13.33
2019-02-21T14:56:27.223Z,13.26
2019-02-21T15:02:20.176Z,13.02
2019-02-21T15:05:10.237Z,12.94
2019-02-21T15:07:53.023Z,12.98
2019-02-21T15:10:42.852Z,12.91
2019-02-21T15:13:32.671Z,12.95
2019-02-21T15:16:22.450Z,12.91
2019-02-21T15:19:12.252Z,12.82
2019-02-21T15:22:02.044Z,12.75
2019-02-21T15:24:51.814Z,12.73
2019-02-21T15:27:41.628Z,12.74
2019-02-21T15:30:31.563Z,12.65
2019-02-21T15:33:21.376Z,12.63
2019-02-21T15:36:11.243Z,12.78
2019-02-21T15:39:01.053Z,12.60
2019-02-21T15:41:50.878Z,12.49
2019-02-21T15:44:40.662Z,12.48
2019-02-21T15:47:30.456Z,12.33
2019-02-21T15:50:20.487Z,12.28
2019-02-21T15:53:10.386Z,12.25
2019-02-21T15:56:00.189Z,12.20
2019-02-21T15:58:49.974Z,12.14
2019-02-21T16:01:47.081Z,12.02
2019-02-21T16:04:24.033Z,11.95
2019-02-21T16:07:13.846Z,12.01
2019-02-21T16:10:03.655Z,11.91
2019-02-21T16:12:53.541Z,11.91
2019-02-21T16:15:43.366Z,11.91
2019-02-21T16:18:33.138Z,11.83
2019-02-21T16:21:22.943Z,11.87
2019-02-21T16:24:12.753Z,11.80
2019-02-21T16:27:02.616Z,11.80
2019-02-21T16:29:52.435Z,11.76
2019-02-21T16:32:42.265Z,11.66
2019-02-21T16:35:32.042Z,11.60
2019-02-21T16:38:21.891Z,11.65
2019-02-21T16:41:11.689Z,11.53
2019-02-21T16:44:01.501Z,11.47
2019-02-21T16:46:51.274Z,11.46
2019-02-21T16:49:41.148Z,11.45
2019-02-21T16:52:30.939Z,11.42
2019-02-21T16:55:20.759Z,11.40
2019-02-21T16:58:10.544Z,11.43
2019-02-21T17:01:00.326Z,11.35
2019-02-21T17:03:50.125Z,11.36
2019-02-21T17:06:39.936Z,11.36
2019-02-21T17:09:29.710Z,11.35
2019-02-21T17:12:19.502Z,11.29
2019-02-21T17:15:10.582Z,11.30
2019-02-21T17:18:03.829Z,11.30
2019-02-21T17:20:44.518Z,11.29
2019-02-21T17:23:34.292Z,11.27
2019-02-21T17:26:24.034Z,11.21
2019-02-21T17:29:13.831Z,11.25
2019-02-21T17:32:03.613Z,11.22
2019-02-21T17:34:53.411Z,11.21
2019-02-21T17:37:43.161Z,11.13
2019-02-21T17:40:32.969Z,11.17
2019-02-21T17:43:22.726Z,11.14
2019-02-21T17:46:12.540Z,11.08
2019-02-21T17:49:02.296Z,11.10
2019-02-21T17:51:53.810Z,11.10
2019-02-21T17:54:35.131Z,11.13
2019-02-21T17:57:24.918Z,11.10
2019-02-21T18:00:17.506Z,11.05
2019-02-21T18:03:07.344Z,11.06
2019-02-21T18:05:57.138Z,11.09
2019-02-21T18:08:46.927Z,11.00
2019-02-21T18:11:36.765Z,10.97
2019-02-21T18:14:26.543Z,10.93
2019-02-21T18:17:16.343Z,10.88
2019-02-21T18:20:06.712Z,10.81
2019-02-21T18:22:56.507Z,10.85
2019-02-21T18:26:07.112Z,10.93
2019-02-21T18:28:56.927Z,10.87
2019-02-21T18:31:46.744Z,10.83
2019-02-21T18:34:36.604Z,10.97
2019-02-21T18:37:26.441Z,10.94
2019-02-21T18:40:19.699Z,10.90
2019-02-21T18:43:08.329Z,10.99
2019-02-21T18:45:58.131Z,10.99
2019-02-21T18:48:47.919Z,10.96
2019-02-21T18:51:37.723Z,10.88
2019-02-21T18:54:27.592Z,10.98
2019-02-21T18:57:17.405Z,11.03
2019-02-21T19:03:33.429Z,11.01
2019-02-21T19:06:23.228Z,11.08
2019-02-21T19:09:13.051Z,11.07
2019-02-21T19:12:02.859Z,11.11
2019-02-21T19:14:52.744Z,11.05
2019-02-21T19:17:42.527Z,11.00
2019-02-21T19:20:32.369Z,11.10
2019-02-21T19:23:22.227Z,11.16
2019-02-21T19:26:12.401Z,11.12
2019-02-21T19:29:02.317Z,11.13
2019-02-21T19:31:52.186Z,11.12
2019-02-21T19:34:42.069Z,11.10
2019-02-21T19:37:32.073Z,11.10
2019-02-21T19:40:21.973Z,11.15
2019-02-21T19:43:11.885Z,11.17
2019-02-21T19:46:01.768Z,11.12
2019-02-21T19:48:51.745Z,11.13
2019-02-21T19:51:41.686Z,11.16
2019-02-21T19:54:31.529Z,11.23
2019-02-21T19:57:21.412Z,11.08
2019-02-21T20:00:26.231Z,11.08
2019-02-21T20:03:16.065Z,11.05
2019-02-21T20:06:06.001Z,11.00
2019-02-21T20:08:55.947Z,11.13
2019-02-21T20:11:45.754Z,11.16
2019-02-21T20:14:35.605Z,11.23
2019-02-21T20:17:25.534Z,11.22
2019-02-21T20:20:16.751Z,11.18
2019-02-21T20:23:06.570Z,11.23
2019-02-21T20:25:56.392Z,11.18
2019-02-21T20:28:46.303Z,11.06
2019-02-21T20:31:37.247Z,11.15
2019-02-21T20:34:27.166Z,11.20
2019-02-21T20:37:17.004Z,11.22
2019-02-21T20:40:07.195Z,11.15
2019-02-21T20:42:57.121Z,11.08
2019-02-21T20:45:53.156Z,11.16
2019-02-21T20:48:30.689Z,11.05
2019-02-21T20:51:13.462Z,11.02
2019-02-21T20:54:03.315Z,10.99
2019-02-21T20:56:53.166Z,10.99
2019-02-21T20:59:43.003Z,10.93
2019-02-21T21:02:33.512Z,10.90
2019-02-21T21:05:23.700Z,10.98
2019-02-21T21:08:13.670Z,11.00
2019-02-21T21:11:03.733Z,10.92
2019-02-21T21:13:56.514Z,10.97
2019-02-21T21:16:48.384Z,11.00
2019-02-21T21:19:38.250Z,10.94
2019-02-21T21:22:28.118Z,10.96
2019-02-21T21:25:18.009Z,11.00
2019-02-21T21:28:07.999Z,11.00
2019-02-21T21:30:57.862Z,11.02
2019-02-21T21:33:47.784Z,10.93
2019-02-21T21:36:37.587Z,10.89
2019-02-21T21:39:27.459Z,10.88
2019-02-21T21:42:17.342Z,10.84
2019-02-21T21:45:09.561Z,10.77
2019-02-21T21:47:59.406Z,10.73
2019-02-21T21:50:49.264Z,10.72
2019-02-21T21:53:39.106Z,10.69
2019-02-21T21:56:28.915Z,10.73
2019-02-21T21:59:18.705Z,10.67
2019-02-21T22:02:08.595Z,10.65
2019-02-21T22:04:58.419Z,10.63
2019-02-21T22:07:49.290Z,10.66
2019-02-21T22:10:25.793Z,10.51
2019-02-21T22:13:15.594Z,10.59
2019-02-21T22:16:05.390Z,10.44
2019-02-21T22:18:55.181Z,10.43
2019-02-21T22:21:44.976Z,10.43
2019-02-21T22:24:34.784Z,10.43
2019-02-21T22:27:24.970Z,10.39
2019-02-21T22:30:10.037Z,10.43
2019-02-21T22:32:59.837Z,10.34
2019-02-21T22:35:50.029Z,10.29
2019-02-21T22:38:39.878Z,10.28
2019-02-21T22:41:48.710Z,10.21
2019-02-21T22:44:38.496Z,10.15
2019-02-21T22:47:28.293Z,10.22
2019-02-21T22:50:18.120Z,10.27
2019-02-21T22:53:07.979Z,10.28
2019-02-21T22:55:57.773Z,10.23
2019-02-21T22:58:47.584Z,10.17
2019-02-21T23:01:40.403Z,10.09
2019-02-21T23:05:08.323Z,10.11
2019-02-21T23:08:22.122Z,10.23
2019-02-21T23:11:12.054Z,10.08
2019-02-21T23:14:01.816Z,10.18
2019-02-21T23:16:51.691Z,10.06
2019-02-21T23:19:41.491Z,10.16
2019-02-21T23:22:31.306Z,10.03
2019-02-21T23:25:21.107Z,10.15
2019-02-21T23:28:10.920Z,10.06
2019-02-21T23:31:00.679Z,10.02
2019-02-21T23:36:50.195Z,9.93
2019-02-21T23:39:39.959Z,9.92
2019-02-21T23:42:29.774Z,9.96
2019-02-21T23:45:19.556Z,10.06
2019-02-21T23:48:09.390Z,9.94
2019-02-21T23:50:59.177Z,9.94
2019-02-21T23:53:48.989Z,9.91
2019-02-21T23:56:39.773Z,9.92
2019-02-21T23:59:29.574Z,9.92
